CSCL Saturn — VRJS5 — position and weather

sailwx.info

Track history (hours):
 
Tides and Currents Weather Stations Pressure Air Temp Water Temp Dewpoint Dewpoint Depression Visibility Wind Speed Wind Dir Waves Ship Positions

CSCL Saturn

Last reported at 2017-Dec-13 02:47 UTC. Time now 2017-Dec-15 23:45 UTC.
Position N 23°46' E 118°07'.

Length 366 m; draft 15.3 m.

Type: Ship (hazmat cat B). MMSI: 477274400.

Date/timePositionNaut miles runAvg speedWind from/ knotsBaromVisibWave heightAir tempDewpointWater temp
2017-Dec-13 02:47N 23°46' E 118°07'1020.1
2017-Dec-13 02:18N 23°52' E 118°15'620.1
2017-Dec-13 02:00N 23°56' E 118°20'1020.1
2017-Dec-13 01:30N 24°02' E 118°29'1020.1
2017-Dec-13 01:00N 24°08' E 118°38'1020.5
2017-Dec-13 00:30N 24°14' E 118°46'  
2017-Dec-09 08:50N 30°36' E 122°04'0 0.6
2017-Dec-09 08:29N 30°36' E 122°04'3 5.3
2017-Dec-09 08:00N 30°35' E 122°07'711.6
2017-Dec-09 07:25N 30°33' E 122°15'911.4
2017-Dec-09 06:36N 30°33' E 122°25'111.2
2017-Dec-09 06:29N 30°33' E 122°27'  
2017-Dec-04 09:25N 38°34' E 121°52'1 1.6
2017-Dec-04 08:47N 38°33' E 121°51'411.5
2017-Dec-04 08:27N 38°30' E 121°50'  
Track history (hours):
 
Tides and Currents Weather Stations Pressure Air Temp Water Temp Dewpoint Dewpoint Depression Visibility Wind Speed Wind Dir Waves Ship Positions

CSCL Saturn

Last reported at 2017-Dec-13 02:47 UTC. Time now 2017-Dec-15 23:45 UTC.
Position N 23°46' E 118°07'.

Length 366 m; draft 15.3 m.

Type: Ship (hazmat cat B). MMSI: 477274400.

Date/timePositionNaut miles runAvg speedWind from/ knotsBaromVisibWave heightAir tempDewpointWater temp
2017-Dec-13 02:47N 23°46' E 118°07'1020.1
2017-Dec-13 02:18N 23°52' E 118°15'620.1
2017-Dec-13 02:00N 23°56' E 118°20'1020.1
2017-Dec-13 01:30N 24°02' E 118°29'1020.1
2017-Dec-13 01:00N 24°08' E 118°38'1020.5
2017-Dec-13 00:30N 24°14' E 118°46'  
2017-Dec-09 08:50N 30°36' E 122°04'0 0.6
2017-Dec-09 08:29N 30°36' E 122°04'3 5.3
2017-Dec-09 08:00N 30°35' E 122°07'711.6
2017-Dec-09 07:25N 30°33' E 122°15'911.4
2017-Dec-09 06:36N 30°33' E 122°25'111.2
2017-Dec-09 06:29N 30°33' E 122°27'  
2017-Dec-04 09:25N 38°34' E 121°52'1 1.6
2017-Dec-04 08:47N 38°33' E 121°51'411.5
2017-Dec-04 08:27N 38°30' E 121°50'  

Dump ship's entire track history